Anthony, New Mexico
Current Conditions -  °F | °C
As of 1:58 PM on Saturday 22 Nov 2014 (Local Time) from KBIF Reporting Station
Clear Clear  
Wind Chill: 65°   Ceiling: Unl
Heat Index: 65°   Visibility: 9mi
Dew Point: 31°   Wind: 12mph
Humidity: 27%   Direction: 290°WNW
Pressure: 29.95"   Gusts: 21mph
Location:  32°N, 106.6°W
Report Text: KBIF 222058Z AUTO 29010G18KT 9SM CLR 19/M01 A2995 RMK AO2 SLP096 T01851007 57026 $
Loading
Personal Weather Stations






























Interactive Weather Map New forecast layout! Learn more

10-Day Weather Forecast

Advertisements
Track Severe Weather on mobile